ěÝzenÝ letovÚho provozu ╚eskÚ republiky
Letiste: LKBC Aktualizace: 30.05.2020 00:56:17  UTC
 METAR LKBC 30.05. 01:00 ...
METAR LKBC 300100Z AUTO 28002KT 9999 SCT066 OVC078 09/05 Q1022=